Time;durP1;ratioP1;P1;durP2;ratioP2;P2;SDS_P1;SDS_P2;PMS_P1;PMS_P2;Temp;Humidity;BMP_temperature;BMP_pressure;BME280_temperature;BME280_humidity;BME280_pressure;Samples;Min_cycle;Max_cycle;Signal;HPM_P1;HPM_P2
2023/08/11 00:00:28;;;;;;;3.77;3.45;;;17.10;75.20;;;;;;964890;148;28542;-75
2023/08/11 00:02:55;;;;;;;3.85;2.75;;;17.00;75.30;;;;;;965008;147;27357;-75
2023/08/11 00:05:22;;;;;;;3.80;3.20;;;17.00;75.40;;;;;;961720;146;27325;-74
2023/08/11 00:07:51;;;;;;;4.85;3.77;;;17.00;75.70;;;;;;960649;148;27260;-75
2023/08/11 00:10:17;;;;;;;4.17;3.35;;;17.00;75.90;;;;;;960492;148;27362;-75
2023/08/11 00:12:44;;;;;;;3.70;3.40;;;17.00;76.10;;;;;;958132;148;27283;-75
2023/08/11 00:15:12;;;;;;;3.33;3.02;;;16.90;76.40;;;;;;958638;146;27294;-75
2023/08/11 00:17:37;;;;;;;4.58;3.05;;;17.00;76.50;;;;;;959681;148;27277;-75
2023/08/11 00:20:05;;;;;;;3.33;3.02;;;17.00;76.70;;;;;;958083;148;27321;-75
2023/08/11 00:22:30;;;;;;;3.75;3.45;;;17.00;76.70;;;;;;961719;148;27223;-75
2023/08/11 00:24:57;;;;;;;3.30;3.10;;;16.90;76.90;;;;;;958763;148;27245;-75
2023/08/11 00:27:23;;;;;;;6.03;3.40;;;16.90;77.20;;;;;;960104;148;27330;-75
2023/08/11 00:29:50;;;;;;;3.70;3.40;;;16.90;77.20;;;;;;961444;148;27420;-75
2023/08/11 00:32:17;;;;;;;3.55;3.25;;;16.80;77.40;;;;;;958209;148;27349;-75
2023/08/11 00:34:43;;;;;;;3.40;3.10;;;16.80;77.40;;;;;;958054;148;27398;-75
2023/08/11 00:37:10;;;;;;;4.47;3.37;;;16.80;77.70;;;;;;958418;148;27327;-75
2023/08/11 00:39:37;;;;;;;3.45;3.15;;;16.80;77.90;;;;;;958488;148;27251;-76
2023/08/11 00:42:03;;;;;;;3.30;2.95;;;16.70;78.10;;;;;;958982;148;27418;-73
2023/08/11 00:44:30;;;;;;;4.08;3.50;;;16.70;78.20;;;;;;959234;148;27290;-72
2023/08/11 00:46:56;;;;;;;3.35;3.15;;;16.70;78.50;;;;;;960051;148;27287;-72
2023/08/11 00:49:23;;;;;;;4.15;2.92;;;16.60;78.90;;;;;;960513;148;27353;-75
2023/08/11 00:51:49;;;;;;;3.40;3.10;;;16.60;79.40;;;;;;957324;148;27447;-75
2023/08/11 00:54:16;;;;;;;4.47;3.27;;;16.60;79.80;;;;;;960730;146;27734;-72
2023/08/11 00:56:44;;;;;;;3.95;3.33;;;16.50;80.10;;;;;;958123;148;27307;-73
2023/08/11 00:59:09;;;;;;;4.53;3.40;;;16.50;80.50;;;;;;958098;148;27290;-73
2023/08/11 01:01:36;;;;;;;5.45;3.52;;;16.50;80.80;;;;;;958299;148;27278;-74
2023/08/11 01:04:04;;;;;;;3.73;3.43;;;16.50;81.10;;;;;;959902;148;27347;-72
2023/08/11 01:06:47;;;;;;;4.72;3.35;;;16.50;81.60;;;;;;965267;147;27293;-73
2023/08/11 01:09:43;;;;;;;3.20;2.90;;;16.40;82.90;;;;;;963250;147;27285;-74
2023/08/11 01:12:28;;;;;;;4.07;3.10;;;16.40;82.60;;;;;;964640;147;27288;-75
2023/08/11 01:15:10;;;;;;;4.33;3.27;;;16.40;82.80;;;;;;965067;147;27311;-74
2023/08/11 01:17:36;;;;;;;4.67;3.13;;;16.30;83.30;;;;;;961194;147;27293;-75
2023/08/11 01:20:09;;;;;;;3.33;3.03;;;16.30;83.90;;;;;;963577;147;27339;-73
2023/08/11 01:22:30;;;;;;;3.50;3.20;;;16.30;84.30;;;;;;964435;145;27358;-74
2023/08/11 01:24:56;;;;;;;3.00;2.67;;;16.30;84.80;;;;;;965461;147;27452;-75
2023/08/11 01:27:22;;;;;;;4.53;3.10;;;16.20;85.10;;;;;;964504;147;27325;-73
2023/08/11 01:29:49;;;;;;;3.13;2.80;;;16.20;85.60;;;;;;966839;146;27375;-74
2023/08/11 01:32:15;;;;;;;3.60;3.30;;;16.20;85.90;;;;;;966218;147;27693;-73
2023/08/11 01:34:42;;;;;;;3.40;3.00;;;16.20;86.40;;;;;;965114;146;27450;-73
2023/08/11 01:37:09;;;;;;;4.10;3.13;;;16.10;86.80;;;;;;965547;146;27332;-72
2023/08/11 01:39:35;;;;;;;3.10;2.80;;;16.10;87.10;;;;;;963477;147;28367;-73
2023/08/11 01:42:02;;;;;;;4.07;3.03;;;16.00;87.80;;;;;;965547;146;27286;-73
2023/08/11 01:44:28;;;;;;;3.20;2.77;;;16.00;88.10;;;;;;962449;146;27420;-73
2023/08/11 01:46:55;;;;;;;4.60;2.80;;;16.00;88.50;;;;;;962203;146;27328;-76
2023/08/11 01:49:25;;;;;;;3.62;3.33;;;15.90;89.00;;;;;;965956;147;27321;-73
2023/08/11 01:51:51;;;;;;;3.27;3.00;;;15.90;89.60;;;;;;963814;147;27343;-73
2023/08/11 01:54:18;;;;;;;4.10;3.17;;;15.90;90.00;;;;;;964814;146;27248;-74
2023/08/11 01:56:44;;;;;;;4.40;3.53;;;15.80;90.20;;;;;;964911;147;27370;-74
2023/08/11 01:59:11;;;;;;;3.15;2.85;;;15.80;90.50;;;;;;966695;146;27361;-73
2023/08/11 02:01:38;;;;;;;3.73;3.43;;;15.80;90.80;;;;;;963307;147;28281;-72
2023/08/11 02:04:04;;;;;;;2.93;2.60;;;15.70;91.10;;;;;;964863;147;27375;-74
2023/08/11 02:06:31;;;;;;;4.67;3.70;;;15.70;91.50;;;;;;964582;146;27309;-73
2023/08/11 02:08:57;;;;;;;3.30;3.00;;;15.70;91.30;;;;;;965493;145;27377;-76
2023/08/11 02:11:24;;;;;;;3.53;3.23;;;15.70;91.90;;;;;;963338;146;27747;-73
2023/08/11 02:13:50;;;;;;;3.13;2.90;;;15.60;92.30;;;;;;965247;146;27452;-73
2023/08/11 02:16:17;;;;;;;3.30;3.10;;;15.60;92.60;;;;;;964346;147;27278;-74
2023/08/11 02:18:44;;;;;;;3.17;2.87;;;15.60;92.80;;;;;;964271;147;27295;-74
2023/08/11 02:21:10;;;;;;;4.37;3.13;;;15.60;93.10;;;;;;965007;146;27338;-73
2023/08/11 02:23:37;;;;;;;3.85;3.55;;;15.60;93.30;;;;;;966221;147;27344;-74
2023/08/11 02:26:03;;;;;;;3.37;3.13;;;15.50;93.60;;;;;;965021;147;27273;-73
2023/08/11 02:28:30;;;;;;;3.58;3.27;;;15.50;94.20;;;;;;965070;146;27273;-73
2023/08/11 02:30:57;;;;;;;3.67;3.20;;;15.50;94.10;;;;;;964985;146;27378;-75
2023/08/11 02:33:23;;;;;;;5.37;3.27;;;15.50;94.30;;;;;;965527;147;27465;-73
2023/08/11 02:35:50;;;;;;;3.23;2.97;;;15.50;94.60;;;;;;965171;146;27262;-73
2023/08/11 02:38:16;;;;;;;3.57;3.20;;;15.50;94.70;;;;;;962678;147;27805;-73
2023/08/11 02:40:43;;;;;;;3.57;3.27;;;15.40;94.90;;;;;;963506;147;27285;-73
2023/08/11 02:43:09;;;;;;;3.27;2.97;;;15.40;95.20;;;;;;964658;146;27366;-76
2023/08/11 02:45:36;;;;;;;4.47;3.60;;;15.40;95.50;;;;;;965180;146;27289;-74
2023/08/11 02:48:03;;;;;;;3.40;3.10;;;15.40;95.70;;;;;;962168;147;27435;-73
2023/08/11 02:50:29;;;;;;;3.73;3.20;;;15.40;95.90;;;;;;963205;147;27257;-73
2023/08/11 02:52:56;;;;;;;3.40;3.10;;;15.40;96.20;;;;;;963017;146;27226;-76
2023/08/11 02:55:22;;;;;;;4.10;3.37;;;15.40;96.50;;;;;;965326;145;27360;-73
2023/08/11 02:57:49;;;;;;;3.33;3.03;;;15.30;96.80;;;;;;964085;146;27367;-73
2023/08/11 03:00:16;;;;;;;3.53;3.23;;;15.40;97.10;;;;;;964977;146;27288;-76
2023/08/11 03:02:42;;;;;;;3.50;3.20;;;15.30;97.40;;;;;;965028;145;27254;-76
2023/08/11 03:05:09;;;;;;;3.67;3.37;;;15.30;97.70;;;;;;963762;147;27318;-76
2023/08/11 03:07:35;;;;;;;4.65;3.00;;;15.30;97.90;;;;;;963618;145;27465;-76
2023/08/11 03:10:02;;;;;;;3.33;3.00;;;15.30;98.00;;;;;;962851;147;27300;-76
2023/08/11 03:12:29;;;;;;;6.13;3.27;;;15.40;98.20;;;;;;963618;147;27313;-76
2023/08/11 03:14:55;;;;;;;3.17;2.93;;;15.40;98.50;;;;;;965064;147;27316;-76
2023/08/11 03:17:22;;;;;;;3.73;3.40;;;15.30;98.70;;;;;;964124;146;27317;-75
2023/08/11 03:19:48;;;;;;;3.23;2.97;;;15.40;98.90;;;;;;966123;147;27414;-76
2023/08/11 03:22:18;;;;;;;3.60;3.30;;;15.30;99.10;;;;;;964497;147;27285;-76
2023/08/11 03:24:41;;;;;;;3.53;3.07;;;15.40;99.20;;;;;;961887;147;27325;-76
2023/08/11 03:27:08;;;;;;;3.93;3.43;;;15.40;99.30;;;;;;963387;146;27622;-76
2023/08/11 03:29:35;;;;;;;3.63;3.33;;;15.40;99.50;;;;;;964211;147;27413;-76
2023/08/11 03:32:01;;;;;;;3.10;2.87;;;15.40;99.70;;;;;;963125;146;27374;-76
2023/08/11 03:34:28;;;;;;;4.00;3.63;;;15.40;99.90;;;;;;964120;147;27402;-76
2023/08/11 03:36:54;;;;;;;3.40;3.10;;;15.40;99.90;;;;;;964995;146;27398;-76
2023/08/11 03:39:21;;;;;;;4.47;3.23;;;15.40;99.90;;;;;;965874;146;27316;-76
2023/08/11 03:41:48;;;;;;;3.45;3.15;;;15.40;99.90;;;;;;963317;147;27377;-76
2023/08/11 03:44:14;;;;;;;3.40;3.10;;;15.40;99.90;;;;;;964306;147;27353;-76
2023/08/11 03:46:41;;;;;;;3.40;3.10;;;15.40;99.90;;;;;;965096;146;27392;-76
2023/08/11 03:49:07;;;;;;;4.60;3.27;;;15.40;99.90;;;;;;964878;147;27409;-76
2023/08/11 03:51:34;;;;;;;3.43;3.13;;;15.40;99.90;;;;;;964499;148;27309;-76
2023/08/11 03:54:03;;;;;;;4.43;3.00;;;15.30;99.90;;;;;;964386;148;27295;-76
2023/08/11 03:56:27;;;;;;;4.13;2.83;;;15.30;99.90;;;;;;963361;147;27281;-76
2023/08/11 03:58:54;;;;;;;3.77;3.40;;;15.30;99.90;;;;;;964969;146;27380;-76
2023/08/11 04:01:20;;;;;;;3.40;3.10;;;15.30;99.90;;;;;;965114;145;27321;-76
2023/08/11 04:03:47;;;;;;;4.00;3.23;;;15.30;99.90;;;;;;965539;146;27329;-76
2023/08/11 04:06:13;;;;;;;5.50;3.27;;;15.30;99.90;;;;;;964688;146;27342;-76
2023/08/11 04:08:40;;;;;;;3.77;3.40;;;15.30;99.90;;;;;;956832;146;27402;-76
2023/08/11 04:11:07;;;;;;;5.00;3.43;;;15.30;99.90;;;;;;952745;147;27397;-75
2023/08/11 04:13:33;;;;;;;3.60;3.30;;;15.30;99.90;;;;;;952539;146;27319;-74
2023/08/11 04:16:00;;;;;;;3.07;2.87;;;15.20;99.90;;;;;;953019;147;27319;-73
2023/08/11 04:18:26;;;;;;;6.90;3.83;;;15.30;99.90;;;;;;951242;146;27326;-73
2023/08/11 04:20:53;;;;;;;4.03;3.37;;;15.20;99.90;;;;;;951326;146;27322;-74
2023/08/11 04:23:20;;;;;;;3.10;2.87;;;15.20;99.90;;;;;;951571;146;27313;-75
2023/08/11 04:25:46;;;;;;;5.03;3.52;;;15.20;99.90;;;;;;951875;149;27331;-73
2023/08/11 04:28:13;;;;;;;4.20;3.13;;;15.20;99.90;;;;;;951480;146;27693;-74
2023/08/11 04:30:39;;;;;;;4.13;2.97;;;15.20;99.90;;;;;;949380;146;27325;-74
2023/08/11 04:33:06;;;;;;;3.60;3.30;;;15.30;99.90;;;;;;951661;150;27319;-76
2023/08/11 04:35:33;;;;;;;4.58;3.77;;;15.30;99.90;;;;;;951091;146;27400;-73
2023/08/11 04:37:59;;;;;;;3.80;3.50;;;15.30;99.90;;;;;;951304;149;27270;-72
2023/08/11 04:40:26;;;;;;;4.53;3.30;;;15.30;99.90;;;;;;952181;147;27712;-73
2023/08/11 04:42:53;;;;;;;4.17;3.50;;;15.40;99.90;;;;;;952094;148;27296;-73
2023/08/11 04:45:19;;;;;;;4.17;3.80;;;15.40;99.90;;;;;;952772;150;27273;-75
2023/08/11 04:47:45;;;;;;;4.97;3.72;;;15.50;99.90;;;;;;951543;150;27426;-75
2023/08/11 04:50:12;;;;;;;3.67;3.37;;;15.50;99.90;;;;;;950857;149;27327;-73
2023/08/11 04:52:39;;;;;;;4.20;3.80;;;15.50;99.90;;;;;;951175;146;27278;-73
2023/08/11 04:55:05;;;;;;;3.70;3.40;;;15.60;99.90;;;;;;951362;146;27381;-74
2023/08/11 04:57:32;;;;;;;3.85;3.37;;;15.60;99.90;;;;;;952571;149;27327;-76
2023/08/11 04:59:58;;;;;;;3.63;3.33;;;15.70;99.90;;;;;;951003;147;27423;-73
2023/08/11 05:02:25;;;;;;;3.90;3.50;;;15.70;99.90;;;;;;950946;146;27299;-73
2023/08/11 05:04:52;;;;;;;4.92;3.33;;;15.80;99.90;;;;;;951347;150;27412;-74
2023/08/11 05:07:18;;;;;;;4.70;3.33;;;15.90;99.90;;;;;;952869;147;27305;-75
2023/08/11 05:09:45;;;;;;;3.58;3.20;;;16.00;99.90;;;;;;951549;146;27449;-73
2023/08/11 05:12:12;;;;;;;4.10;3.70;;;16.10;99.90;;;;;;950580;146;27332;-73
2023/08/11 05:14:38;;;;;;;3.30;3.10;;;16.40;99.90;;;;;;952631;146;27282;-74
2023/08/11 05:17:04;;;;;;;4.47;3.10;;;16.80;99.90;;;;;;950443;146;27299;-73
2023/08/11 05:19:31;;;;;;;3.60;3.30;;;17.30;99.90;;;;;;947916;147;27291;-76
2023/08/11 05:21:58;;;;;;;2.80;2.60;;;17.90;99.90;;;;;;950501;150;27332;-74
2023/08/11 05:24:24;;;;;;;2.75;2.55;;;18.50;99.90;;;;;;952165;147;27344;-74
2023/08/11 05:26:51;;;;;;;3.98;2.67;;;19.20;99.90;;;;;;951238;149;27299;-74
2023/08/11 05:29:17;;;;;;;2.75;2.55;;;19.90;99.90;;;;;;953188;150;27423;-75
2023/08/11 05:31:44;;;;;;;3.90;2.30;;;20.70;99.90;;;;;;951336;146;27320;-74
2023/08/11 05:34:11;;;;;;;2.35;2.15;;;21.50;99.90;;;;;;952298;150;27332;-75
2023/08/11 05:36:37;;;;;;;2.62;2.42;;;22.30;99.90;;;;;;950505;146;27419;-75
2023/08/11 05:39:04;;;;;;;2.65;2.25;;;23.00;99.90;;;;;;951405;146;27691;-75
2023/08/11 05:41:30;;;;;;;2.00;1.82;;;23.80;98.60;;;;;;951926;149;27369;-76
2023/08/11 05:43:57;;;;;;;2.85;2.10;;;24.60;96.30;;;;;;950895;147;27326;-75
2023/08/11 05:46:24;;;;;;;3.33;2.00;;;25.30;93.60;;;;;;951580;148;27238;-75
2023/08/11 05:48:51;;;;;;;2.47;2.10;;;26.00;91.00;;;;;;953707;146;27269;-75
2023/08/11 05:51:17;;;;;;;1.80;1.70;;;26.70;87.80;;;;;;951807;147;27377;-76
2023/08/11 05:53:43;;;;;;;3.75;2.10;;;27.30;83.20;;;;;;951211;146;27328;-76
2023/08/11 05:56:10;;;;;;;2.22;2.12;;;28.00;79.50;;;;;;950774;147;27315;-75
2023/08/11 05:58:37;;;;;;;2.22;1.80;;;28.50;77.30;;;;;;951074;150;27285;-76
2023/08/11 06:01:03;;;;;;;2.55;2.35;;;29.10;75.30;;;;;;952616;146;27280;-76
2023/08/11 06:03:33;;;;;;;2.42;2.22;;;29.70;73.10;;;;;;951537;146;27345;-77
2023/08/11 06:05:59;;;;;;;2.10;1.90;;;30.20;70.50;;;;;;951144;149;27893;-74
2023/08/11 06:08:26;;;;;;;1.98;1.87;;;30.80;68.90;;;;;;951620;149;27755;-75
2023/08/11 06:10:54;;;;;;;3.05;2.00;;;31.40;67.40;;;;;;950227;147;27909;-75
2023/08/11 06:13:19;;;;;;;3.52;2.10;;;31.90;65.50;;;;;;950426;146;27299;-76
2023/08/11 06:15:46;;;;;;;1.85;1.62;;;32.40;63.60;;;;;;951650;150;27331;-75
2023/08/11 06:18:12;;;;;;;2.87;1.85;;;32.90;62.10;;;;;;951599;147;27400;-76
2023/08/11 06:20:39;;;;;;;2.08;1.87;;;33.40;60.60;;;;;;952061;146;26310;-75
2023/08/11 06:23:05;;;;;;;3.98;2.10;;;33.80;59.50;;;;;;951360;146;26185;-76
2023/08/11 06:25:32;;;;;;;2.58;1.95;;;34.30;58.60;;;;;;952298;147;26209;-76
2023/08/11 06:27:58;;;;;;;2.72;1.90;;;34.70;57.80;;;;;;952792;149;26352;-76
2023/08/11 06:30:28;;;;;;;1.95;1.60;;;35.10;56.90;;;;;;953082;147;26270;-76
2023/08/11 06:32:52;;;;;;;3.92;1.70;;;35.50;56.20;;;;;;949649;146;26205;-75
2023/08/11 06:35:18;;;;;;;1.70;1.57;;;35.90;55.60;;;;;;950983;146;26177;-77
2023/08/11 06:37:45;;;;;;;2.80;2.02;;;36.30;54.70;;;;;;952066;150;26261;-75
2023/08/11 06:40:13;;;;;;;1.90;1.72;;;36.70;53.80;;;;;;952902;149;26286;-76
2023/08/11 06:42:38;;;;;;;3.52;1.85;;;37.10;53.00;;;;;;952415;150;26197;-75
2023/08/11 06:45:05;;;;;;;3.50;1.90;;;37.40;52.30;;;;;;949106;148;26150;-75
2023/08/11 06:47:31;;;;;;;2.37;1.82;;;37.70;51.50;;;;;;952348;146;26198;-77
2023/08/11 06:49:58;;;;;;;2.00;1.62;;;38.10;51.30;;;;;;952605;147;26678;-75
2023/08/11 06:52:24;;;;;;;3.70;1.80;;;38.40;50.60;;;;;;951079;146;26157;-75
2023/08/11 06:54:51;;;;;;;2.52;2.00;;;38.80;49.90;;;;;;950528;147;26214;-75
2023/08/11 06:57:21;;;;;;;2.22;1.80;;;39.20;48.90;;;;;;951773;146;26313;-77
2023/08/11 06:59:47;;;;;;;2.25;2.08;;;39.40;47.70;;;;;;951728;147;26252;-75
2023/08/11 07:02:14;;;;;;;2.67;1.72;;;39.80;46.90;;;;;;951994;147;28863;-75
2023/08/11 07:04:40;;;;;;;2.02;1.90;;;39.90;46.40;;;;;;950499;146;26170;-75
2023/08/11 07:07:07;;;;;;;2.10;1.90;;;40.10;46.00;;;;;;952485;150;26318;-77
2023/08/11 07:09:33;;;;;;;1.90;1.80;;;40.30;45.40;;;;;;951785;149;26221;-76
2023/08/11 07:12:00;;;;;;;1.90;1.80;;;40.50;45.00;;;;;;956690;149;26255;-75
2023/08/11 07:14:27;;;;;;;2.25;1.65;;;40.60;44.40;;;;;;955737;148;26294;-76
2023/08/11 07:16:53;;;;;;;1.80;1.70;;;40.80;44.00;;;;;;956584;147;26192;-75
2023/08/11 07:19:20;;;;;;;3.98;1.60;;;41.00;43.20;;;;;;955442;146;26209;-75
2023/08/11 07:21:46;;;;;;;1.90;1.80;;;41.10;42.60;;;;;;955167;146;26240;-76
2023/08/11 07:24:13;;;;;;;3.20;1.65;;;41.20;42.00;;;;;;955183;147;26240;-75
2023/08/11 07:26:40;;;;;;;1.87;1.72;;;41.30;41.90;;;;;;954861;149;26252;-75
2023/08/11 07:29:06;;;;;;;1.77;1.67;;;41.40;41.50;;;;;;956732;149;26284;-76
2023/08/11 07:31:33;;;;;;;2.10;1.90;;;41.50;41.30;;;;;;956175;146;26232;-77
2023/08/11 07:33:59;;;;;;;2.30;1.80;;;41.60;40.80;;;;;;956082;146;26321;-75
2023/08/11 07:36:26;;;;;;;1.98;1.87;;;41.70;40.80;;;;;;956951;146;26209;-75
2023/08/11 07:38:53;;;;;;;2.30;1.82;;;41.90;40.20;;;;;;956163;149;26180;-78
2023/08/11 07:41:19;;;;;;;3.70;1.85;;;42.00;40.10;;;;;;956400;146;26231;-76
2023/08/11 07:43:46;;;;;;;1.98;1.72;;;42.20;39.80;;;;;;955655;147;26321;-76
2023/08/11 07:46:12;;;;;;;1.98;1.77;;;42.50;39.70;;;;;;956395;146;26256;-75
2023/08/11 07:48:39;;;;;;;3.33;1.82;;;42.80;39.40;;;;;;954619;149;26213;-76
2023/08/11 07:51:05;;;;;;;1.75;1.65;;;43.00;39.00;;;;;;955720;147;26304;-77
2023/08/11 07:53:32;;;;;;;2.90;1.85;;;43.20;38.50;;;;;;956793;146;26305;-77
2023/08/11 07:55:59;;;;;;;1.70;1.52;;;43.50;38.20;;;;;;953597;146;26344;-75
2023/08/11 07:58:25;;;;;;;2.08;1.82;;;43.80;37.80;;;;;;956415;148;26235;-75
2023/08/11 08:00:52;;;;;;;1.80;1.50;;;44.00;37.50;;;;;;957579;147;26309;-76
2023/08/11 08:03:18;;;;;;;1.72;1.62;;;44.30;37.40;;;;;;953694;146;26307;-75
2023/08/11 08:05:45;;;;;;;1.60;1.42;;;44.50;37.00;;;;;;959031;149;26332;-76
2023/08/11 08:08:12;;;;;;;2.70;1.65;;;44.90;36.60;;;;;;956128;147;28142;-76
2023/08/11 08:10:38;;;;;;;1.57;1.47;;;45.20;36.20;;;;;;961813;147;26238;-75
2023/08/11 08:13:05;;;;;;;1.92;1.70;;;45.50;35.80;;;;;;965670;146;26164;-75
2023/08/11 08:15:31;;;;;;;2.67;1.85;;;45.80;35.50;;;;;;965054;145;26180;-75
2023/08/11 08:17:58;;;;;;;1.60;1.50;;;46.10;34.90;;;;;;964832;145;26271;-74
2023/08/11 08:20:25;;;;;;;1.60;1.50;;;46.40;34.50;;;;;;964798;145;26368;-73
2023/08/11 08:22:51;;;;;;;2.12;1.52;;;46.60;33.80;;;;;;961303;148;26144;-74
2023/08/11 08:25:18;;;;;;;3.62;1.55;;;46.70;33.40;;;;;;962868;146;26165;-74
2023/08/11 08:27:45;;;;;;;2.15;1.45;;;47.00;33.20;;;;;;964455;146;26246;-74
2023/08/11 08:30:11;;;;;;;1.67;1.37;;;47.20;33.00;;;;;;974165;143;26238;-73
2023/08/11 08:32:38;;;;;;;3.12;1.47;;;47.30;32.50;;;;;;964246;145;26675;-75
2023/08/11 08:35:05;;;;;;;4.30;1.50;;;47.60;32.20;;;;;;963259;145;26248;-74
2023/08/11 08:37:31;;;;;;;2.35;1.47;;;47.70;31.80;;;;;;962986;145;26244;-75
2023/08/11 08:39:57;;;;;;;1.72;1.45;;;47.90;31.70;;;;;;962071;145;26247;-73
2023/08/11 08:42:24;;;;;;;1.50;1.40;;;48.20;31.10;;;;;;961986;146;26238;-74
2023/08/11 08:44:51;;;;;;;1.67;1.57;;;48.20;30.90;;;;;;961290;148;26245;-74
2023/08/11 08:47:20;;;;;;;1.80;1.60;;;48.40;30.30;;;;;;963865;147;26217;-75
2023/08/11 08:49:46;;;;;;;1.40;1.30;;;48.40;30.00;;;;;;958104;146;26703;-72
2023/08/11 08:52:13;;;;;;;1.47;1.35;;;48.40;30.40;;;;;;960460;148;26255;-72
2023/08/11 08:54:39;;;;;;;1.30;1.20;;;48.40;30.00;;;;;;974003;143;26318;-72
2023/08/11 08:57:08;;;;;;;1.65;1.55;;;48.40;29.80;;;;;;974863;143;26219;-74
2023/08/11 08:59:33;;;;;;;2.45;1.50;;;48.50;29.30;;;;;;975924;143;26258;-75
2023/08/11 09:01:59;;;;;;;1.70;1.60;;;48.50;29.20;;;;;;975253;143;26270;-73
2023/08/11 09:04:26;;;;;;;1.40;1.30;;;48.50;29.10;;;;;;963207;146;26180;-72
2023/08/11 09:06:55;;;;;;;1.37;1.27;;;48.50;29.30;;;;;;963387;147;26214;-72
2023/08/11 09:09:23;;;;;;;3.17;1.62;;;48.50;29.10;;;;;;967251;145;26301;-74
2023/08/11 09:11:49;;;;;;;1.70;1.60;;;48.50;29.00;;;;;;956423;147;26361;-74
2023/08/11 09:14:16;;;;;;;1.70;1.60;;;48.60;28.90;;;;;;951288;146;26225;-73
2023/08/11 09:16:41;;;;;;;1.67;1.32;;;48.70;28.80;;;;;;952374;149;26170;-73
2023/08/11 09:19:08;;;;;;;1.57;1.47;;;48.80;28.70;;;;;;952264;146;26314;-74
2023/08/11 09:21:35;;;;;;;1.45;1.45;;;48.80;28.90;;;;;;950411;146;26257;-76
2023/08/11 09:24:01;;;;;;;1.65;1.55;;;48.90;28.50;;;;;;950987;150;26319;-73
2023/08/11 09:26:28;;;;;;;1.50;1.40;;;49.00;28.30;;;;;;951097;146;26205;-72
2023/08/11 09:28:54;;;;;;;1.42;1.30;;;49.10;28.20;;;;;;951102;147;26221;-74
2023/08/11 09:31:24;;;;;;;2.35;1.45;;;49.10;28.10;;;;;;952830;147;26236;-75
2023/08/11 09:33:50;;;;;;;1.37;1.27;;;49.10;28.20;;;;;;951003;146;26224;-74
2023/08/11 09:36:17;;;;;;;1.67;1.57;;;49.10;28.10;;;;;;952546;150;26290;-73
2023/08/11 09:38:46;;;;;;;1.62;1.52;;;49.10;28.20;;;;;;951014;148;26250;-73
2023/08/11 09:41:12;;;;;;;1.37;1.32;;;49.10;27.80;;;;;;953302;146;26256;-75
2023/08/11 09:43:39;;;;;;;1.42;1.20;;;49.10;28.00;;;;;;949778;146;26232;-72
2023/08/11 09:46:06;;;;;;;1.10;1.10;;;49.00;27.60;;;;;;951064;150;26138;-73
2023/08/11 09:48:32;;;;;;;2.08;1.32;;;49.00;27.40;;;;;;951051;150;26286;-73
2023/08/11 09:50:59;;;;;;;1.20;1.20;;;48.90;27.40;;;;;;951345;147;26278;-76
2023/08/11 09:53:26;;;;;;;1.40;1.30;;;48.80;27.40;;;;;;949216;147;26249;-73
2023/08/11 09:55:52;;;;;;;1.25;1.25;;;48.70;27.50;;;;;;951851;150;26142;-74
2023/08/11 09:58:19;;;;;;;1.62;1.32;;;48.50;27.30;;;;;;952324;146;26268;-74
2023/08/11 10:00:45;;;;;;;1.60;1.40;;;48.30;27.20;;;;;;952364;149;26245;-76
2023/08/11 10:03:12;;;;;;;1.50;1.40;;;48.00;27.20;;;;;;948916;146;26224;-76
2023/08/11 10:05:38;;;;;;;1.50;1.40;;;47.70;27.30;;;;;;950281;146;26329;-76
2023/08/11 10:08:05;;;;;;;1.35;1.32;;;47.30;27.30;;;;;;950910;150;26334;-76
2023/08/11 10:10:32;;;;;;;1.95;1.77;;;47.00;27.40;;;;;;949892;146;26264;-76
2023/08/11 10:13:17;;;;;;;1.75;1.60;;;46.60;27.40;;;;;;965449;147;26265;-75
2023/08/11 10:15:43;;;;;;;1.65;1.55;;;46.10;27.00;;;;;;965190;147;26361;-76
2023/08/11 10:18:09;;;;;;;3.60;1.50;;;45.50;27.20;;;;;;964734;147;26176;-76
2023/08/11 10:20:36;;;;;;;1.82;1.72;;;44.90;27.40;;;;;;965149;146;26228;-75
2023/08/11 10:23:02;;;;;;;1.65;1.55;;;44.30;27.50;;;;;;963433;146;26665;-75
2023/08/11 10:25:29;;;;;;;1.42;1.37;;;43.80;27.90;;;;;;964188;147;27750;-76
2023/08/11 10:27:56;;;;;;;2.83;1.85;;;43.30;28.20;;;;;;964661;147;26300;-75
2023/08/11 10:30:22;;;;;;;3.25;2.00;;;42.70;28.20;;;;;;963561;146;27219;-76
2023/08/11 10:32:57;;;;;;;1.60;1.50;;;42.20;28.30;;;;;;964114;146;26239;-76
2023/08/11 10:35:21;;;;;;;1.77;1.67;;;41.60;28.80;;;;;;962155;147;26250;-75
2023/08/11 10:37:57;;;;;;;1.80;1.70;;;41.00;28.90;;;;;;963244;147;26199;-76
2023/08/11 10:40:23;;;;;;;1.50;1.40;;;40.50;29.20;;;;;;964221;147;26230;-76
2023/08/11 10:42:50;;;;;;;2.47;1.70;;;40.10;29.40;;;;;;964360;146;26296;-76
2023/08/11 10:45:16;;;;;;;3.90;2.00;;;39.60;29.70;;;;;;963079;146;26263;-75
2023/08/11 10:47:55;;;;;;;1.65;1.55;;;39.30;29.90;;;;;;964543;147;27329;-76
2023/08/11 10:50:22;;;;;;;1.75;1.65;;;38.90;30.00;;;;;;964989;147;26310;-76
2023/08/11 10:52:48;;;;;;;1.77;1.50;;;38.60;30.50;;;;;;962185;147;26231;-75
2023/08/11 10:55:15;;;;;;;1.98;1.77;;;38.30;30.50;;;;;;962475;147;26211;-75
2023/08/11 10:57:42;;;;;;;2.08;1.50;;;38.10;30.60;;;;;;964272;147;27350;-75
2023/08/11 11:00:10;;;;;;;1.72;1.62;;;37.80;30.50;;;;;;966127;146;27327;-75
2023/08/11 11:02:35;;;;;;;1.82;1.52;;;37.50;31.20;;;;;;964984;147;27290;-75
2023/08/11 11:05:02;;;;;;;1.77;1.67;;;37.10;30.70;;;;;;963666;147;27329;-75
2023/08/11 11:07:28;;;;;;;3.12;1.60;;;36.70;31.10;;;;;;962576;147;27293;-75
2023/08/11 11:09:55;;;;;;;3.05;1.60;;;36.40;31.60;;;;;;962771;147;27366;-74
2023/08/11 11:12:21;;;;;;;1.60;1.50;;;36.20;32.10;;;;;;960897;147;27363;-74
2023/08/11 11:14:48;;;;;;;2.00;1.60;;;36.00;32.70;;;;;;951072;150;27333;-74
2023/08/11 11:17:14;;;;;;;1.87;1.70;;;35.80;33.10;;;;;;950487;146;27284;-73
2023/08/11 11:19:41;;;;;;;1.87;1.75;;;35.60;33.40;;;;;;951949;148;27300;-75
2023/08/11 11:22:07;;;;;;;2.00;1.75;;;35.50;33.70;;;;;;953322;146;27363;-75
2023/08/11 11:24:34;;;;;;;1.67;1.57;;;35.40;33.80;;;;;;951234;146;27312;-75
2023/08/11 11:27:01;;;;;;;1.60;1.50;;;35.20;33.70;;;;;;952677;146;27420;-76
2023/08/11 11:29:28;;;;;;;2.50;1.90;;;35.10;34.10;;;;;;952210;148;27205;-76
2023/08/11 11:31:54;;;;;;;1.60;1.50;;;35.10;34.10;;;;;;950937;146;27347;-75
2023/08/11 11:34:21;;;;;;;1.70;1.40;;;35.00;34.10;;;;;;950053;146;27701;-76
2023/08/11 11:36:47;;;;;;;3.30;1.67;;;34.90;34.30;;;;;;951182;147;27287;-76
2023/08/11 11:39:14;;;;;;;1.82;1.50;;;34.90;34.40;;;;;;952363;146;27366;-76
2023/08/11 11:41:40;;;;;;;2.25;1.57;;;34.80;34.40;;;;;;951471;146;27426;-76
2023/08/11 11:44:07;;;;;;;3.33;1.67;;;34.80;34.40;;;;;;951290;146;27419;-76
2023/08/11 11:46:33;;;;;;;1.60;1.50;;;34.70;34.40;;;;;;950577;149;28580;-76
2023/08/11 11:49:00;;;;;;;1.45;1.35;;;34.60;34.40;;;;;;951844;146;27281;-76
2023/08/11 11:51:27;;;;;;;1.80;1.70;;;34.50;34.40;;;;;;951535;147;27319;-76
2023/08/11 11:53:58;;;;;;;1.70;1.60;;;34.40;34.80;;;;;;951933;147;27436;-75
2023/08/11 11:56:23;;;;;;;1.95;1.82;;;34.30;34.90;;;;;;950361;147;27340;-76
2023/08/11 11:58:49;;;;;;;2.25;1.60;;;34.20;34.80;;;;;;952339;146;27324;-76
2023/08/11 12:01:16;;;;;;;1.80;1.70;;;34.10;35.00;;;;;;950876;146;27301;-76
2023/08/11 12:03:45;;;;;;;1.52;1.42;;;34.00;35.50;;;;;;950329;146;27318;-76
2023/08/11 12:06:12;;;;;;;1.45;1.42;;;33.90;36.10;;;;;;950207;150;27337;-76
2023/08/11 12:08:44;;;;;;;1.55;1.45;;;33.90;36.00;;;;;;953592;146;27426;-75
2023/08/11 12:11:14;;;;;;;1.55;1.45;;;33.80;36.00;;;;;;953021;148;27376;-76
2023/08/11 12:13:39;;;;;;;1.47;1.37;;;33.80;36.00;;;;;;951039;150;27449;-75
2023/08/11 12:16:07;;;;;;;1.35;1.35;;;33.70;36.20;;;;;;950736;146;27313;-76
2023/08/11 12:18:33;;;;;;;1.85;1.75;;;33.70;36.50;;;;;;952674;146;27288;-76
2023/08/11 12:20:59;;;;;;;1.75;1.65;;;33.60;36.50;;;;;;951777;150;27314;-76
2023/08/11 12:23:26;;;;;;;2.02;1.65;;;33.50;36.70;;;;;;949727;146;27342;-76
2023/08/11 12:25:52;;;;;;;1.50;1.40;;;33.50;36.70;;;;;;952828;146;27297;-76
2023/08/11 12:28:19;;;;;;;1.42;1.32;;;33.40;36.70;;;;;;951138;150;27291;-76
2023/08/11 12:30:46;;;;;;;1.60;1.40;;;33.30;36.90;;;;;;948376;147;27259;-76
2023/08/11 12:33:12;;;;;;;1.70;1.60;;;33.30;37.20;;;;;;949695;146;27408;-77
2023/08/11 12:35:39;;;;;;;1.52;1.42;;;33.20;37.30;;;;;;949819;146;28334;-76
2023/08/11 12:38:07;;;;;;;1.60;1.50;;;33.30;37.30;;;;;;950704;149;27273;-76
2023/08/11 12:40:32;;;;;;;2.92;1.85;;;33.20;37.20;;;;;;948710;149;27381;-76
2023/08/11 12:42:58;;;;;;;1.75;1.52;;;33.20;37.20;;;;;;951302;146;27325;-77
2023/08/11 12:45:25;;;;;;;1.67;1.50;;;33.20;37.10;;;;;;953129;148;27437;-75